sensor_id;sensor_type;location;lat;lon;timestamp;pressure;altitude;pressure_sealevel;temperature;humidity
50933;BME280;36921;49.006;9.292;2022-10-28T00:00:00;99467.94;;;13.67;100.00
50933;BME280;36921;49.006;9.292;2022-10-28T00:02:25;99468.16;;;13.72;100.00
50933;BME280;36921;49.006;9.292;2022-10-28T00:04:51;99448.91;;;13.67;100.00
50933;BME280;36921;49.006;9.292;2022-10-28T00:07:16;99431.97;;;13.72;100.00
50933;BME280;36921;49.006;9.292;2022-10-28T00:09:41;99438.44;;;13.64;100.00
50933;BME280;36921;49.006;9.292;2022-10-28T00:12:07;99443.22;;;13.49;100.00
50933;BME280;36921;49.006;9.292;2022-10-28T00:14:32;99436.72;;;13.30;100.00
50933;BME280;36921;49.006;9.292;2022-10-28T00:16:57;99435.81;;;13.16;100.00
50933;BME280;36921;49.006;9.292;2022-10-28T00:19:23;99439.50;;;13.02;100.00
50933;BME280;36921;49.006;9.292;2022-10-28T00:21:48;99437.84;;;13.01;100.00
50933;BME280;36921;49.006;9.292;2022-10-28T00:24:13;99459.16;;;13.04;100.00
50933;BME280;36921;49.006;9.292;2022-10-28T00:26:40;99460.63;;;13.00;100.00
50933;BME280;36921;49.006;9.292;2022-10-28T00:29:09;99445.72;;;12.89;100.00
50933;BME280;36921;49.006;9.292;2022-10-28T00:31:36;99448.44;;;12.89;100.00
50933;BME280;36921;49.006;9.292;2022-10-28T00:34:04;99453.44;;;12.85;100.00
50933;BME280;36921;49.006;9.292;2022-10-28T00:36:33;99452.22;;;12.88;100.00
50933;BME280;36921;49.006;9.292;2022-10-28T00:39:00;99452.06;;;13.03;100.00
50933;BME280;36921;49.006;9.292;2022-10-28T00:41:29;99435.97;;;13.01;100.00
50933;BME280;36921;49.006;9.292;2022-10-28T00:44:01;99451.25;;;13.02;100.00
50933;BME280;36921;49.006;9.292;2022-10-28T00:46:48;99449.91;;;12.85;100.00
50933;BME280;36921;49.006;9.292;2022-10-28T00:49:29;99447.53;;;12.68;100.00
50933;BME280;36921;49.006;9.292;2022-10-28T00:52:00;99431.56;;;12.52;100.00
50933;BME280;36921;49.006;9.292;2022-10-28T00:54:26;99441.16;;;12.48;100.00
50933;BME280;36921;49.006;9.292;2022-10-28T00:56:54;99455.00;;;12.60;100.00
50933;BME280;36921;49.006;9.292;2022-10-28T00:59:48;99448.53;;;12.61;100.00
50933;BME280;36921;49.006;9.292;2022-10-28T01:02:15;99451.44;;;12.59;100.00
50933;BME280;36921;49.006;9.292;2022-10-28T01:04:41;99446.41;;;12.56;100.00
50933;BME280;36921;49.006;9.292;2022-10-28T01:07:07;99447.78;;;12.39;100.00
50933;BME280;36921;49.006;9.292;2022-10-28T01:09:32;99446.69;;;12.33;100.00
50933;BME280;36921;49.006;9.292;2022-10-28T01:12:27;99460.34;;;12.46;100.00
50933;BME280;36921;49.006;9.292;2022-10-28T01:15:43;99461.22;;;12.54;100.00
50933;BME280;36921;49.006;9.292;2022-10-28T01:18:39;99465.22;;;12.58;100.00
50933;BME280;36921;49.006;9.292;2022-10-28T01:23:59;99453.59;;;12.70;100.00
50933;BME280;36921;49.006;9.292;2022-10-28T01:29:30;99442.13;;;12.75;100.00
50933;BME280;36921;49.006;9.292;2022-10-28T01:32:12;99450.25;;;12.68;100.00
50933;BME280;36921;49.006;9.292;2022-10-28T01:37:36;99440.50;;;12.87;100.00
50933;BME280;36921;49.006;9.292;2022-10-28T01:43:11;99447.34;;;12.35;100.00
50933;BME280;36921;49.006;9.292;2022-10-28T01:46:06;99449.28;;;12.13;100.00
50933;BME280;36921;49.006;9.292;2022-10-28T01:48:40;99440.19;;;11.99;100.00
50933;BME280;36921;49.006;9.292;2022-10-28T01:51:15;99446.91;;;12.03;100.00
50933;BME280;36921;49.006;9.292;2022-10-28T01:53:43;99451.13;;;12.13;100.00
50933;BME280;36921;49.006;9.292;2022-10-28T01:56:14;99451.63;;;12.23;100.00
50933;BME280;36921;49.006;9.292;2022-10-28T01:58:42;99447.66;;;12.19;100.00
50933;BME280;36921;49.006;9.292;2022-10-28T02:01:09;99421.84;;;12.01;100.00
50933;BME280;36921;49.006;9.292;2022-10-28T02:03:35;99445.94;;;12.11;100.00
50933;BME280;36921;49.006;9.292;2022-10-28T02:06:03;99438.47;;;12.20;100.00
50933;BME280;36921;49.006;9.292;2022-10-28T02:14:39;99446.22;;;12.23;100.00
50933;BME280;36921;49.006;9.292;2022-10-28T02:17:21;99422.84;;;12.22;100.00
50933;BME280;36921;49.006;9.292;2022-10-28T02:19:54;99431.41;;;12.25;100.00
50933;BME280;36921;49.006;9.292;2022-10-28T02:22:50;99417.91;;;12.39;100.00
50933;BME280;36921;49.006;9.292;2022-10-28T02:25:23;99435.50;;;12.43;100.00
50933;BME280;36921;49.006;9.292;2022-10-28T02:28:01;99437.38;;;12.42;100.00
50933;BME280;36921;49.006;9.292;2022-10-28T02:30:32;99437.13;;;12.37;100.00
50933;BME280;36921;49.006;9.292;2022-10-28T02:33:02;99420.84;;;12.37;100.00
50933;BME280;36921;49.006;9.292;2022-10-28T02:35:45;99432.59;;;12.44;100.00
50933;BME280;36921;49.006;9.292;2022-10-28T02:38:26;99424.81;;;12.41;100.00
50933;BME280;36921;49.006;9.292;2022-10-28T02:40:57;99422.97;;;12.42;100.00
50933;BME280;36921;49.006;9.292;2022-10-28T02:43:24;99415.03;;;12.40;100.00
50933;BME280;36921;49.006;9.292;2022-10-28T02:45:54;99412.53;;;12.45;100.00
50933;BME280;36921;49.006;9.292;2022-10-28T02:48:29;99427.38;;;12.49;100.00
50933;BME280;36921;49.006;9.292;2022-10-28T02:51:19;99410.19;;;12.36;100.00
50933;BME280;36921;49.006;9.292;2022-10-28T02:56:23;99394.13;;;12.41;100.00
50933;BME280;36921;49.006;9.292;2022-10-28T02:58:48;99403.81;;;12.57;100.00
50933;BME280;36921;49.006;9.292;2022-10-28T03:01:14;99413.03;;;12.62;100.00
50933;BME280;36921;49.006;9.292;2022-10-28T03:03:39;99396.56;;;12.64;100.00
50933;BME280;36921;49.006;9.292;2022-10-28T03:06:05;99399.31;;;12.77;100.00
50933;BME280;36921;49.006;9.292;2022-10-28T03:08:31;99398.59;;;13.10;100.00
50933;BME280;36921;49.006;9.292;2022-10-28T03:10:56;99419.50;;;13.23;100.00
50933;BME280;36921;49.006;9.292;2022-10-28T03:13:21;99412.59;;;13.20;100.00
50933;BME280;36921;49.006;9.292;2022-10-28T03:15:47;99420.16;;;13.18;100.00
50933;BME280;36921;49.006;9.292;2022-10-28T03:18:12;99416.16;;;13.14;100.00
50933;BME280;36921;49.006;9.292;2022-10-28T03:20:37;99408.59;;;13.03;100.00
50933;BME280;36921;49.006;9.292;2022-10-28T03:23:02;99410.31;;;13.10;100.00
50933;BME280;36921;49.006;9.292;2022-10-28T03:25:28;99420.16;;;13.18;100.00
50933;BME280;36921;49.006;9.292;2022-10-28T03:27:53;99403.63;;;13.13;100.00
50933;BME280;36921;49.006;9.292;2022-10-28T03:30:18;99392.31;;;13.09;100.00
50933;BME280;36921;49.006;9.292;2022-10-28T03:32:44;99400.50;;;13.16;100.00
50933;BME280;36921;49.006;9.292;2022-10-28T03:35:09;99414.97;;;13.30;100.00
50933;BME280;36921;49.006;9.292;2022-10-28T03:37:35;99382.72;;;13.13;100.00
50933;BME280;36921;49.006;9.292;2022-10-28T03:40:01;99404.91;;;13.24;100.00
50933;BME280;36921;49.006;9.292;2022-10-28T03:42:27;99417.50;;;13.31;100.00
50933;BME280;36921;49.006;9.292;2022-10-28T03:44:53;99421.03;;;13.32;100.00
50933;BME280;36921;49.006;9.292;2022-10-28T03:47:19;99397.19;;;13.27;100.00
50933;BME280;36921;49.006;9.292;2022-10-28T03:49:44;99414.34;;;13.34;100.00
50933;BME280;36921;49.006;9.292;2022-10-28T03:52:09;99377.06;;;13.15;100.00
50933;BME280;36921;49.006;9.292;2022-10-28T03:54:35;99400.81;;;13.68;100.00
50933;BME280;36921;49.006;9.292;2022-10-28T03:57:00;99390.56;;;13.76;100.00
50933;BME280;36921;49.006;9.292;2022-10-28T03:59:25;99391.59;;;13.89;100.00
50933;BME280;36921;49.006;9.292;2022-10-28T04:01:50;99383.25;;;13.70;100.00
50933;BME280;36921;49.006;9.292;2022-10-28T04:04:16;99371.91;;;13.33;100.00
50933;BME280;36921;49.006;9.292;2022-10-28T04:06:41;99374.75;;;13.12;100.00
50933;BME280;36921;49.006;9.292;2022-10-28T04:09:06;99341.28;;;12.91;100.00
50933;BME280;36921;49.006;9.292;2022-10-28T04:11:32;99380.47;;;13.30;100.00
50933;BME280;36921;49.006;9.292;2022-10-28T04:13:57;99373.31;;;13.16;100.00
50933;BME280;36921;49.006;9.292;2022-10-28T04:16:22;99369.53;;;13.04;100.00
50933;BME280;36921;49.006;9.292;2022-10-28T04:18:48;99373.72;;;13.06;100.00
50933;BME280;36921;49.006;9.292;2022-10-28T04:21:13;99348.44;;;13.06;100.00
50933;BME280;36921;49.006;9.292;2022-10-28T04:23:38;99363.47;;;13.08;100.00
50933;BME280;36921;49.006;9.292;2022-10-28T04:26:04;99366.63;;;13.12;100.00
50933;BME280;36921;49.006;9.292;2022-10-28T04:28:29;99351.78;;;13.14;100.00
50933;BME280;36921;49.006;9.292;2022-10-28T04:30:54;99383.59;;;13.21;100.00
50933;BME280;36921;49.006;9.292;2022-10-28T04:33:19;99376.22;;;13.14;100.00
50933;BME280;36921;49.006;9.292;2022-10-28T04:35:45;99368.91;;;13.15;100.00
50933;BME280;36921;49.006;9.292;2022-10-28T04:38:11;99381.09;;;13.26;100.00
50933;BME280;36921;49.006;9.292;2022-10-28T04:40:38;99339.66;;;13.17;100.00
50933;BME280;36921;49.006;9.292;2022-10-28T04:43:03;99358.94;;;13.35;100.00
50933;BME280;36921;49.006;9.292;2022-10-28T04:45:30;99362.09;;;13.39;100.00
50933;BME280;36921;49.006;9.292;2022-10-28T04:47:57;99353.53;;;13.49;100.00
50933;BME280;36921;49.006;9.292;2022-10-28T04:50:22;99351.84;;;13.61;100.00
50933;BME280;36921;49.006;9.292;2022-10-28T04:52:48;99356.44;;;13.74;100.00
50933;BME280;36921;49.006;9.292;2022-10-28T04:55:13;99356.63;;;13.86;100.00
50933;BME280;36921;49.006;9.292;2022-10-28T04:57:38;99367.94;;;13.89;100.00
50933;BME280;36921;49.006;9.292;2022-10-28T05:00:04;99360.44;;;13.71;100.00
50933;BME280;36921;49.006;9.292;2022-10-28T05:02:30;99370.06;;;13.61;100.00
50933;BME280;36921;49.006;9.292;2022-10-28T05:04:55;99369.22;;;13.67;100.00
50933;BME280;36921;49.006;9.292;2022-10-28T05:07:24;99345.59;;;13.47;100.00
50933;BME280;36921;49.006;9.292;2022-10-28T05:09:49;99360.84;;;13.68;100.00
50933;BME280;36921;49.006;9.292;2022-10-28T05:12:15;99358.31;;;13.87;100.00
50933;BME280;36921;49.006;9.292;2022-10-28T05:14:40;99342.00;;;13.87;100.00
50933;BME280;36921;49.006;9.292;2022-10-28T05:17:07;99345.34;;;13.89;100.00
50933;BME280;36921;49.006;9.292;2022-10-28T05:19:34;99352.47;;;13.90;100.00
50933;BME280;36921;49.006;9.292;2022-10-28T05:21:59;99330.72;;;13.76;100.00
50933;BME280;36921;49.006;9.292;2022-10-28T05:24:24;99333.84;;;13.87;100.00
50933;BME280;36921;49.006;9.292;2022-10-28T05:26:49;99327.94;;;14.03;100.00
50933;BME280;36921;49.006;9.292;2022-10-28T05:29:15;99305.72;;;14.19;100.00
50933;BME280;36921;49.006;9.292;2022-10-28T05:31:42;99295.00;;;14.24;100.00
50933;BME280;36921;49.006;9.292;2022-10-28T05:34:07;99302.72;;;14.41;100.00
50933;BME280;36921;49.006;9.292;2022-10-28T05:36:32;99303.13;;;14.44;100.00
50933;BME280;36921;49.006;9.292;2022-10-28T05:38:58;99288.63;;;14.51;100.00
50933;BME280;36921;49.006;9.292;2022-10-28T05:41:23;99318.78;;;14.62;100.00
50933;BME280;36921;49.006;9.292;2022-10-28T05:43:50;99302.97;;;14.26;100.00
50933;BME280;36921;49.006;9.292;2022-10-28T05:46:15;99330.25;;;14.06;100.00
50933;BME280;36921;49.006;9.292;2022-10-28T05:48:40;99339.91;;;13.89;100.00
50933;BME280;36921;49.006;9.292;2022-10-28T05:51:05;99328.19;;;13.75;100.00
50933;BME280;36921;49.006;9.292;2022-10-28T05:53:31;99327.91;;;14.16;100.00
50933;BME280;36921;49.006;9.292;2022-10-28T05:55:56;99323.28;;;14.23;100.00
50933;BME280;36921;49.006;9.292;2022-10-28T05:58:21;99327.22;;;14.41;100.00
50933;BME280;36921;49.006;9.292;2022-10-28T06:00:47;99348.75;;;14.42;100.00
50933;BME280;36921;49.006;9.292;2022-10-28T06:03:12;99331.91;;;14.14;100.00
50933;BME280;36921;49.006;9.292;2022-10-28T06:05:43;99318.97;;;13.96;100.00
50933;BME280;36921;49.006;9.292;2022-10-28T06:08:12;99341.94;;;14.13;100.00
50933;BME280;36921;49.006;9.292;2022-10-28T06:10:38;99330.44;;;14.11;100.00
50933;BME280;36921;49.006;9.292;2022-10-28T06:13:03;99348.03;;;14.15;100.00
50933;BME280;36921;49.006;9.292;2022-10-28T06:15:29;99351.16;;;13.99;100.00
50933;BME280;36921;49.006;9.292;2022-10-28T06:17:54;99328.19;;;13.81;100.00
50933;BME280;36921;49.006;9.292;2022-10-28T06:20:20;99348.06;;;13.89;100.00
50933;BME280;36921;49.006;9.292;2022-10-28T06:22:49;99339.72;;;13.84;100.00
50933;BME280;36921;49.006;9.292;2022-10-28T06:25:15;99345.75;;;13.92;100.00
50933;BME280;36921;49.006;9.292;2022-10-28T06:27:41;99358.72;;;13.97;100.00
50933;BME280;36921;49.006;9.292;2022-10-28T06:30:07;99358.50;;;14.05;100.00
50933;BME280;36921;49.006;9.292;2022-10-28T06:32:32;99330.69;;;13.90;100.00
50933;BME280;36921;49.006;9.292;2022-10-28T06:34:58;99330.50;;;13.91;100.00
50933;BME280;36921;49.006;9.292;2022-10-28T06:37:23;99348.03;;;14.15;100.00
50933;BME280;36921;49.006;9.292;2022-10-28T06:39:48;99351.56;;;14.09;100.00
50933;BME280;36921;49.006;9.292;2022-10-28T06:42:17;99346.31;;;14.14;100.00
50933;BME280;36921;49.006;9.292;2022-10-28T06:44:42;99345.69;;;14.25;100.00
50933;BME280;36921;49.006;9.292;2022-10-28T06:47:08;99319.91;;;14.35;100.00
50933;BME280;36921;49.006;9.292;2022-10-28T06:49:33;99346.38;;;14.73;100.00
50933;BME280;36921;49.006;9.292;2022-10-28T06:51:58;99336.44;;;14.85;100.00
50933;BME280;36921;49.006;9.292;2022-10-28T06:54:24;99338.25;;;15.04;100.00
50933;BME280;36921;49.006;9.292;2022-10-28T06:56:49;99339.53;;;15.27;100.00
50933;BME280;36921;49.006;9.292;2022-10-28T06:59:15;99331.44;;;15.45;100.00
50933;BME280;36921;49.006;9.292;2022-10-28T07:01:40;99354.13;;;15.71;100.00
50933;BME280;36921;49.006;9.292;2022-10-28T07:04:06;99327.78;;;15.83;100.00
50933;BME280;36921;49.006;9.292;2022-10-28T07:06:34;99335.91;;;16.08;100.00
50933;BME280;36921;49.006;9.292;2022-10-28T07:09:00;99339.09;;;16.24;100.00
50933;BME280;36921;49.006;9.292;2022-10-28T07:11:25;99338.22;;;16.48;100.00
50933;BME280;36921;49.006;9.292;2022-10-28T07:13:50;99343.19;;;16.70;100.00
50933;BME280;36921;49.006;9.292;2022-10-28T07:16:16;99350.53;;;17.18;100.00
50933;BME280;36921;49.006;9.292;2022-10-28T07:18:41;99368.56;;;17.91;100.00
50933;BME280;36921;49.006;9.292;2022-10-28T07:21:06;99345.19;;;18.47;100.00
50933;BME280;36921;49.006;9.292;2022-10-28T07:23:32;99363.34;;;18.77;100.00
50933;BME280;36921;49.006;9.292;2022-10-28T07:25:58;99364.63;;;18.34;100.00
50933;BME280;36921;49.006;9.292;2022-10-28T07:28:24;99386.03;;;18.49;100.00
50933;BME280;36921;49.006;9.292;2022-10-28T07:30:50;99360.16;;;18.56;100.00
50933;BME280;36921;49.006;9.292;2022-10-28T07:33:16;99383.28;;;19.92;100.00
50933;BME280;36921;49.006;9.292;2022-10-28T07:35:41;99366.03;;;19.63;100.00
50933;BME280;36921;49.006;9.292;2022-10-28T07:38:08;99390.38;;;19.42;100.00
50933;BME280;36921;49.006;9.292;2022-10-28T07:40:34;99380.97;;;18.81;100.00
50933;BME280;36921;49.006;9.292;2022-10-28T07:42:59;99366.00;;;18.48;100.00
50933;BME280;36921;49.006;9.292;2022-10-28T07:45:24;99394.31;;;18.89;100.00
50933;BME280;36921;49.006;9.292;2022-10-28T07:47:50;99390.78;;;19.05;100.00
50933;BME280;36921;49.006;9.292;2022-10-28T07:50:16;99406.53;;;18.34;100.00
50933;BME280;36921;49.006;9.292;2022-10-28T07:52:41;99406.41;;;18.29;100.00
50933;BME280;36921;49.006;9.292;2022-10-28T07:55:07;99415.84;;;18.22;100.00
50933;BME280;36921;49.006;9.292;2022-10-28T07:57:34;99397.09;;;17.83;100.00
50933;BME280;36921;49.006;9.292;2022-10-28T07:59:59;99395.06;;;17.37;100.00
50933;BME280;36921;49.006;9.292;2022-10-28T08:02:25;99411.66;;;17.23;100.00
50933;BME280;36921;49.006;9.292;2022-10-28T08:04:51;99396.88;;;16.64;100.00
50933;BME280;36921;49.006;9.292;2022-10-28T08:07:16;99401.13;;;16.16;100.00
50933;BME280;36921;49.006;9.292;2022-10-28T08:09:42;99392.41;;;16.08;100.00
50933;BME280;36921;49.006;9.292;2022-10-28T08:12:08;99392.84;;;16.05;100.00
50933;BME280;36921;49.006;9.292;2022-10-28T08:14:36;99408.03;;;16.19;100.00
50933;BME280;36921;49.006;9.292;2022-10-28T08:17:01;99389.38;;;16.16;100.00
50933;BME280;36921;49.006;9.292;2022-10-28T08:19:27;99412.78;;;16.49;100.00
50933;BME280;36921;49.006;9.292;2022-10-28T08:21:52;99398.81;;;16.57;100.00
50933;BME280;36921;49.006;9.292;2022-10-28T08:24:18;99414.13;;;16.76;100.00
50933;BME280;36921;49.006;9.292;2022-10-28T08:26:43;99421.59;;;16.69;100.00
50933;BME280;36921;49.006;9.292;2022-10-28T08:29:09;99409.66;;;16.45;100.00
50933;BME280;36921;49.006;9.292;2022-10-28T08:31:36;99414.28;;;16.63;100.00
50933;BME280;36921;49.006;9.292;2022-10-28T08:34:02;99414.28;;;16.63;100.00
50933;BME280;36921;49.006;9.292;2022-10-28T08:36:27;99425.94;;;16.77;100.00
50933;BME280;36921;49.006;9.292;2022-10-28T08:38:52;99393.97;;;16.96;100.00
50933;BME280;36921;49.006;9.292;2022-10-28T08:41:30;99403.63;;;16.80;100.00
50933;BME280;36921;49.006;9.292;2022-10-28T08:44:23;99425.22;;;17.00;100.00
50933;BME280;36921;49.006;9.292;2022-10-28T08:49:47;99404.19;;;17.61;100.00
50933;BME280;36921;49.006;9.292;2022-10-28T08:55:16;99403.53;;;17.89;100.00
50933;BME280;36921;49.006;9.292;2022-10-28T08:57:47;99431.88;;;17.83;100.00
50933;BME280;36921;49.006;9.292;2022-10-28T09:00:21;99417.03;;;18.14;100.00
50933;BME280;36921;49.006;9.292;2022-10-28T09:05:38;99402.09;;;19.38;100.00
50933;BME280;36921;49.006;9.292;2022-10-28T09:08:04;99401.84;;;20.02;100.00
50933;BME280;36921;49.006;9.292;2022-10-28T09:13:19;99415.81;;;20.17;100.00
50933;BME280;36921;49.006;9.292;2022-10-28T09:18:57;99455.91;;;19.67;100.00
50933;BME280;36921;49.006;9.292;2022-10-28T09:21:43;99426.56;;;19.39;100.00
50933;BME280;36921;49.006;9.292;2022-10-28T09:24:28;99419.44;;;19.26;100.00
50933;BME280;36921;49.006;9.292;2022-10-28T09:27:10;99428.31;;;19.45;100.00
50933;BME280;36921;49.006;9.292;2022-10-28T09:30:00;99411.16;;;19.67;100.00
50933;BME280;36921;49.006;9.292;2022-10-28T09:32:45;99357.69;;;19.24;100.00
50933;BME280;36921;49.006;9.292;2022-10-28T09:35:15;99329.97;;;18.80;100.00
50933;BME280;36921;49.006;9.292;2022-10-28T09:37:51;99355.34;;;18.87;100.00
50933;BME280;36921;49.006;9.292;2022-10-28T09:40:26;99375.19;;;19.23;100.00
50933;BME280;36921;49.006;9.292;2022-10-28T09:43:14;99345.78;;;19.81;100.00
50933;BME280;36921;49.006;9.292;2022-10-28T09:45:45;99361.47;;;20.58;91.48
50933;BME280;36921;49.006;9.292;2022-10-28T09:48:28;99338.19;;;21.42;81.61
50933;BME280;36921;49.006;9.292;2022-10-28T09:50:56;99350.91;;;22.65;75.19
50933;BME280;36921;49.006;9.292;2022-10-28T09:53:42;99347.72;;;25.23;60.69
50933;BME280;36921;49.006;9.292;2022-10-28T09:56:09;99351.47;;;27.07;53.57
50933;BME280;36921;49.006;9.292;2022-10-28T09:58:35;99387.28;;;28.50;51.35
50933;BME280;36921;49.006;9.292;2022-10-28T10:01:03;99383.78;;;28.86;46.89
50933;BME280;36921;49.006;9.292;2022-10-28T10:03:29;99376.56;;;28.98;46.13
50933;BME280;36921;49.006;9.292;2022-10-28T10:05:56;99382.19;;;28.38;45.74
50933;BME280;36921;49.006;9.292;2022-10-28T10:08:23;99373.13;;;27.86;47.33
50933;BME280;36921;49.006;9.292;2022-10-28T10:11:04;99381.44;;;27.10;48.07
50933;BME280;36921;49.006;9.292;2022-10-28T10:13:35;99388.59;;;27.54;47.52
50933;BME280;36921;49.006;9.292;2022-10-28T10:16:24;99378.03;;;28.82;45.56
50933;BME280;36921;49.006;9.292;2022-10-28T10:18:53;99371.81;;;29.85;44.01
50933;BME280;36921;49.006;9.292;2022-10-28T10:21:43;99384.38;;;29.60;44.43
50933;BME280;36921;49.006;9.292;2022-10-28T10:24:27;99384.88;;;29.62;43.57
50933;BME280;36921;49.006;9.292;2022-10-28T10:26:53;99377.66;;;27.95;45.80
50933;BME280;36921;49.006;9.292;2022-10-28T10:29:19;99390.34;;;27.07;48.36
50933;BME280;36921;49.006;9.292;2022-10-28T10:31:46;99409.53;;;26.31;48.23
50933;BME280;36921;49.006;9.292;2022-10-28T10:34:22;99384.59;;;25.18;50.61
50933;BME280;36921;49.006;9.292;2022-10-28T10:36:51;99412.34;;;24.98;51.26
50933;BME280;36921;49.006;9.292;2022-10-28T10:39:19;99417.25;;;24.00;52.77
50933;BME280;36921;49.006;9.292;2022-10-28T10:41:46;99391.91;;;23.04;57.81
50933;BME280;36921;49.006;9.292;2022-10-28T10:49:13;99363.03;;;23.68;59.07
50933;BME280;36921;49.006;9.292;2022-10-28T10:51:50;99380.56;;;25.79;53.24
50933;BME280;36921;49.006;9.292;2022-10-28T10:54:16;99364.63;;;28.24;48.02
50933;BME280;36921;49.006;9.292;2022-10-28T10:56:41;99360.84;;;29.02;44.81
50933;BME280;36921;49.006;9.292;2022-10-28T11:01:45;99385.19;;;27.95;46.32
50933;BME280;36921;49.006;9.292;2022-10-28T11:04:18;99395.81;;;26.69;49.19
50933;BME280;36921;49.006;9.292;2022-10-28T11:06:49;99389.28;;;25.18;52.18
50933;BME280;36921;49.006;9.292;2022-10-28T11:09:25;99398.38;;;24.58;55.71
50933;BME280;36921;49.006;9.292;2022-10-28T11:11:53;99386.78;;;24.20;56.28
50933;BME280;36921;49.006;9.292;2022-10-28T11:14:21;99379.06;;;23.66;58.18
50933;BME280;36921;49.006;9.292;2022-10-28T11:16:53;99338.13;;;23.17;60.40
50933;BME280;36921;49.006;9.292;2022-10-28T11:24:42;99329.41;;;22.67;62.51
50933;BME280;36921;49.006;9.292;2022-10-28T11:27:57;99324.31;;;23.07;61.50
50933;BME280;36921;49.006;9.292;2022-10-28T11:30:51;99347.81;;;23.60;61.27
50933;BME280;36921;49.006;9.292;2022-10-28T11:44:01;99330.38;;;23.04;65.66
50933;BME280;36921;49.006;9.292;2022-10-28T11:52:16;99339.94;;;22.86;66.22
50933;BME280;36921;49.006;9.292;2022-10-28T11:55:21;99330.94;;;23.06;63.76
50933;BME280;36921;49.006;9.292;2022-10-28T12:00:28;99346.00;;;22.78;66.78
50933;BME280;36921;49.006;9.292;2022-10-28T12:06:14;99317.69;;;23.23;63.66
50933;BME280;36921;49.006;9.292;2022-10-28T12:11:42;99317.69;;;23.13;64.13
50933;BME280;36921;49.006;9.292;2022-10-28T12:19:55;99296.47;;;23.39;62.08
50933;BME280;36921;49.006;9.292;2022-10-28T12:22:32;99304.22;;;23.73;61.99
50933;BME280;36921;49.006;9.292;2022-10-28T12:25:06;99290.00;;;24.25;60.15
50933;BME280;36921;49.006;9.292;2022-10-28T12:27:36;99280.25;;;24.54;60.14
50933;BME280;36921;49.006;9.292;2022-10-28T12:30:20;99302.75;;;25.36;57.86
50933;BME280;36921;49.006;9.292;2022-10-28T12:32:51;99313.34;;;25.63;56.99
50933;BME280;36921;49.006;9.292;2022-10-28T12:35:24;99295.63;;;25.93;55.61
50933;BME280;36921;49.006;9.292;2022-10-28T12:38:01;99291.34;;;26.30;54.64
50933;BME280;36921;49.006;9.292;2022-10-28T12:40:38;99292.34;;;25.91;55.96
50933;BME280;36921;49.006;9.292;2022-10-28T12:43:28;99295.44;;;25.85;57.05
50933;BME280;36921;49.006;9.292;2022-10-28T12:45:56;99298.81;;;25.47;58.12
50933;BME280;36921;49.006;9.292;2022-10-28T12:48:38;99282.00;;;25.68;57.68
50933;BME280;36921;49.006;9.292;2022-10-28T12:51:32;99293.78;;;26.37;56.50
50933;BME280;36921;49.006;9.292;2022-10-28T12:54:29;99296.34;;;26.57;55.38
50933;BME280;36921;49.006;9.292;2022-10-28T12:57:13;99283.44;;;26.18;54.71
50933;BME280;36921;49.006;9.292;2022-10-28T12:59:45;99289.72;;;26.72;54.89
50933;BME280;36921;49.006;9.292;2022-10-28T13:02:23;99285.41;;;28.62;50.50
50933;BME280;36921;49.006;9.292;2022-10-28T13:04:50;99281.09;;;29.65;48.29
50933;BME280;36921;49.006;9.292;2022-10-28T13:07:41;99280.53;;;30.48;45.71
50933;BME280;36921;49.006;9.292;2022-10-28T13:15:53;99265.84;;;31.17;44.00
50933;BME280;36921;49.006;9.292;2022-10-28T13:21:40;99253.22;;;31.29;44.39
50933;BME280;36921;49.006;9.292;2022-10-28T13:24:19;99265.22;;;31.20;44.00
50933;BME280;36921;49.006;9.292;2022-10-28T13:26:47;99264.03;;;31.56;42.65
50933;BME280;36921;49.006;9.292;2022-10-28T13:29:27;99273.25;;;31.65;42.87
50933;BME280;36921;49.006;9.292;2022-10-28T13:31:54;99266.72;;;32.08;41.68
50933;BME280;36921;49.006;9.292;2022-10-28T13:34:27;99257.38;;;32.04;41.42
50933;BME280;36921;49.006;9.292;2022-10-28T13:36:57;99264.91;;;32.04;41.18
50933;BME280;36921;49.006;9.292;2022-10-28T13:39:38;99267.63;;;31.74;41.16
50933;BME280;36921;49.006;9.292;2022-10-28T13:44:54;99268.97;;;30.98;43.12
50933;BME280;36921;49.006;9.292;2022-10-28T13:47:30;99271.69;;;31.85;42.15
50933;BME280;36921;49.006;9.292;2022-10-28T13:50:31;99267.69;;;31.13;42.48
50933;BME280;36921;49.006;9.292;2022-10-28T13:55:56;99275.91;;;28.36;47.56
50933;BME280;36921;49.006;9.292;2022-10-28T13:58:24;99257.28;;;28.09;46.47
50933;BME280;36921;49.006;9.292;2022-10-28T14:00:51;99270.63;;;27.60;49.23
50933;BME280;36921;49.006;9.292;2022-10-28T14:03:26;99256.59;;;27.19;50.19
50933;BME280;36921;49.006;9.292;2022-10-28T14:05:56;99276.09;;;26.95;51.31
50933;BME280;36921;49.006;9.292;2022-10-28T14:08:39;99276.91;;;26.33;52.72
50933;BME280;36921;49.006;9.292;2022-10-28T14:11:20;99275.72;;;26.15;53.84
50933;BME280;36921;49.006;9.292;2022-10-28T14:19:00;99281.72;;;25.35;55.71
50933;BME280;36921;49.006;9.292;2022-10-28T14:24:13;99278.19;;;24.80;58.13
50933;BME280;36921;49.006;9.292;2022-10-28T14:30:12;99298.72;;;24.68;60.56
50933;BME280;36921;49.006;9.292;2022-10-28T14:32:41;99307.91;;;24.54;59.27
50933;BME280;36921;49.006;9.292;2022-10-28T14:40:22;99300.22;;;24.35;60.85
50933;BME280;36921;49.006;9.292;2022-10-28T14:49:11;99308.34;;;23.75;64.38
50933;BME280;36921;49.006;9.292;2022-10-28T14:51:26;99297.84;;;23.82;65.28
50933;BME280;36921;49.006;9.292;2022-10-28T14:53:56;99291.78;;;23.75;65.43
50933;BME280;36921;49.006;9.292;2022-10-28T14:56:24;99295.63;;;23.59;67.80
50933;BME280;36921;49.006;9.292;2022-10-28T14:58:51;99293.97;;;23.63;67.87
50933;BME280;36921;49.006;9.292;2022-10-28T15:01:26;99293.13;;;23.57;68.33
50933;BME280;36921;49.006;9.292;2022-10-28T15:03:59;99286.53;;;23.48;68.22